createdAt,value
2019-04-16T00:04:24.857Z,82.80
2019-04-16T00:09:32.240Z,82.90
2019-04-16T00:14:42.582Z,82.90
2019-04-16T00:19:50.179Z,83.70
2019-04-16T00:24:57.503Z,84.30
2019-04-16T00:30:05.930Z,84.70
2019-04-16T00:35:15.660Z,84.40
2019-04-16T00:40:26.405Z,84.40
2019-04-16T00:45:31.588Z,83.50
2019-04-16T00:50:39.844Z,83.20
2019-04-16T00:55:47.826Z,82.70
2019-04-16T01:00:55.315Z,82.10
2019-04-16T01:06:07.042Z,82.10
2019-04-16T01:11:12.154Z,81.90
2019-04-16T01:16:19.619Z,80.70
2019-04-16T01:21:27.728Z,80.40
2019-04-16T01:26:36.724Z,80.10
2019-04-16T01:31:45.462Z,80.30
2019-04-16T01:36:54.371Z,80.30
2019-04-16T01:42:02.691Z,80.20
2019-04-16T01:47:10.560Z,79.80
2019-04-16T01:52:19.091Z,79.80
2019-04-16T01:57:28.384Z,80.20
2019-04-16T02:02:35.968Z,80.10
2019-04-16T02:07:42.989Z,79.90
2019-04-16T02:12:50.059Z,79.30
2019-04-16T02:17:58.767Z,79.70
2019-04-16T02:23:06.200Z,79.70
2019-04-16T02:28:13.321Z,79.40
2019-04-16T02:33:21.344Z,79.10
2019-04-16T02:38:29.430Z,78.30
2019-04-16T02:43:41.006Z,78.00
2019-04-16T02:48:51.530Z,77.90
2019-04-16T02:53:58.907Z,77.40
2019-04-16T02:59:11.875Z,77.00
2019-04-16T03:04:17.455Z,77.20
2019-04-16T03:09:25.829Z,77.40
2019-04-16T03:14:33.359Z,77.40
2019-04-16T03:19:48.341Z,77.50
2019-04-16T03:24:55.058Z,77.30
2019-04-16T03:30:05.131Z,77.80
2019-04-16T03:35:12.337Z,76.40
2019-04-16T03:40:25.950Z,76.30
2019-04-16T03:45:41.675Z,75.70
2019-04-16T03:50:49.593Z,75.40
2019-04-16T03:55:58.324Z,74.70
2019-04-16T04:01:05.764Z,74.50
2019-04-16T04:06:13.431Z,75.60
2019-04-16T04:11:21.012Z,75.80
2019-04-16T04:16:30.594Z,75.60
2019-04-16T04:21:38.470Z,76.00
2019-04-16T04:26:46.305Z,74.80
2019-04-16T04:31:54.015Z,74.80
2019-04-16T04:37:01.534Z,74.50
2019-04-16T04:42:08.679Z,75.10
2019-04-16T04:47:19.409Z,72.70
2019-04-16T04:52:27.987Z,72.20
2019-04-16T04:57:35.767Z,72.90
2019-04-16T05:02:44.525Z,72.30
2019-04-16T05:07:52.210Z,71.30
2019-04-16T05:13:00.924Z,70.20
2019-04-16T05:18:09.894Z,70.10
2019-04-16T05:23:28.099Z,69.20
2019-04-16T05:28:35.500Z,69.30
2019-04-16T05:33:43.599Z,68.90
2019-04-16T05:38:55.523Z,67.90
2019-04-16T05:44:01.771Z,66.70
2019-04-16T05:49:09.953Z,67.90
2019-04-16T05:54:18.264Z,68.30
2019-04-16T05:59:26.222Z,68.00
2019-04-16T06:04:34.533Z,67.40
2019-04-16T06:09:44.511Z,68.00
2019-04-16T06:15:12.051Z,67.00
2019-04-16T06:20:21.386Z,66.80
2019-04-16T06:25:30.523Z,64.70
2019-04-16T06:30:40.285Z,64.40
2019-04-16T06:35:48.797Z,63.80
2019-04-16T06:40:57.610Z,62.80
2019-04-16T06:46:08.367Z,63.00
2019-04-16T06:51:16.814Z,64.10
2019-04-16T06:56:25.575Z,62.10
2019-04-16T07:01:36.756Z,62.60
2019-04-16T07:06:54.483Z,63.30
2019-04-16T07:12:03.382Z,61.10
2019-04-16T07:17:11.950Z,61.00
2019-04-16T08:03:08.617Z,64.70
2019-04-16T08:08:16.347Z,64.80
2019-04-16T08:13:24.882Z,62.90
2019-04-16T08:18:32.135Z,61.10
2019-04-16T08:23:41.068Z,59.60
2019-04-16T08:28:48.468Z,59.20
2019-04-16T08:33:56.629Z,59.50
2019-04-16T08:39:06.657Z,59.60
2019-04-16T08:44:14.180Z,59.00
2019-04-16T08:49:22.501Z,58.60
2019-04-16T08:54:30.912Z,58.60
2019-04-16T08:59:39.481Z,59.10
2019-04-16T09:04:47.864Z,58.10
2019-04-16T09:09:57.625Z,58.00
2019-04-16T09:15:05.920Z,58.10
2019-04-16T09:20:14.812Z,57.30
2019-04-16T09:25:23.421Z,57.00
2019-04-16T09:30:32.575Z,57.10
2019-04-16T09:35:40.595Z,57.20
2019-04-16T09:40:49.400Z,57.10
2019-04-16T09:46:09.632Z,57.20
2019-04-16T09:51:05.754Z,57.10
2019-04-16T10:14:30.219Z,58.30
2019-04-16T10:26:06.835Z,60.10
2019-04-16T10:31:22.537Z,60.70
2019-04-16T10:36:30.297Z,61.10
2019-04-16T10:41:39.139Z,61.70
2019-04-16T10:46:48.404Z,61.90
2019-04-16T10:52:55.676Z,62.40
2019-04-16T10:58:04.859Z,63.20
2019-04-16T11:03:34.396Z,63.20
2019-04-16T11:08:50.701Z,63.50
2019-04-16T11:14:00.244Z,64.60
2019-04-16T11:19:16.775Z,64.30
2019-04-16T11:24:23.928Z,64.30
2019-04-16T11:29:31.243Z,65.00
2019-04-16T11:34:38.644Z,65.60
2019-04-16T11:39:45.922Z,66.00
2019-04-16T11:44:53.390Z,65.80
2019-04-16T11:50:02.445Z,65.70
2019-04-16T11:55:12.381Z,66.20
2019-04-16T12:00:21.820Z,66.40
2019-04-16T12:05:30.770Z,67.10
2019-04-16T12:10:39.968Z,67.30
2019-04-16T12:15:48.969Z,67.40
2019-04-16T12:20:57.945Z,67.90
2019-04-16T12:26:09.520Z,68.60
2019-04-16T12:31:17.506Z,69.10
2019-04-16T12:36:26.599Z,68.70
2019-04-16T12:41:36.099Z,68.00
2019-04-16T12:46:57.468Z,66.70
2019-04-16T12:52:06.458Z,66.50
2019-04-16T12:57:16.659Z,66.80
2019-04-16T13:02:26.546Z,66.90
2019-04-16T13:07:38.756Z,67.20
2019-04-16T13:12:44.768Z,67.60
2019-04-16T13:17:53.465Z,67.10
2019-04-16T13:23:02.409Z,65.70
2019-04-16T13:28:09.837Z,64.80
2019-04-16T13:33:17.329Z,64.10
2019-04-16T13:38:26.778Z,64.50
2019-04-16T13:43:55.583Z,64.30
2019-04-16T13:49:04.106Z,64.40
2019-04-16T13:54:13.010Z,65.00
2019-04-16T13:59:21.991Z,65.40
2019-04-16T14:04:31.528Z,66.10
2019-04-16T14:09:37.905Z,66.80
2019-04-16T14:14:46.749Z,67.10
2019-04-16T14:19:54.442Z,67.40
2019-04-16T14:25:02.663Z,67.70
2019-04-16T14:30:12.088Z,67.80
2019-04-16T14:35:33.114Z,67.00
2019-04-16T14:40:30.336Z,66.70
2019-04-16T14:45:56.966Z,67.10
2019-04-16T14:50:48.243Z,67.90
2019-04-16T14:56:00.601Z,67.50
2019-04-16T15:01:07.028Z,67.60
2019-04-16T15:06:17.018Z,67.90
2019-04-16T15:11:25.741Z,68.40
2019-04-16T15:16:35.530Z,69.40
2019-04-16T15:21:45.376Z,69.80
2019-04-16T15:26:55.037Z,69.70
2019-04-16T15:32:05.932Z,70.20
2019-04-16T15:37:14.700Z,70.70
2019-04-16T15:42:23.436Z,71.10
2019-04-16T15:47:32.870Z,71.70
2019-04-16T15:52:41.958Z,72.50
2019-04-16T15:57:51.183Z,71.70
2019-04-16T16:02:59.391Z,71.50
2019-04-16T16:08:08.864Z,71.70
2019-04-16T16:13:15.971Z,71.70
2019-04-16T16:18:23.742Z,71.80
2019-04-16T16:23:34.058Z,72.50
2019-04-16T16:28:40.771Z,72.20
2019-04-16T16:33:48.059Z,72.00
2019-04-16T16:38:56.129Z,71.30
2019-04-16T16:44:03.635Z,71.00
2019-04-16T16:49:10.868Z,70.90
2019-04-16T16:54:20.220Z,71.40
2019-04-16T16:59:29.702Z,72.30
2019-04-16T17:04:38.422Z,72.70
2019-04-16T17:09:46.462Z,73.40
2019-04-16T17:14:53.533Z,73.40
2019-04-16T17:20:02.216Z,74.40
2019-04-16T17:25:11.647Z,74.80
2019-04-16T17:30:19.321Z,74.30
2019-04-16T17:35:27.244Z,74.70
2019-04-16T17:40:36.535Z,74.80
2019-04-16T17:45:44.083Z,75.40
2019-04-16T17:50:52.975Z,75.40
2019-04-16T17:56:01.376Z,76.20
2019-04-16T18:01:11.016Z,76.00
2019-04-16T18:06:19.433Z,76.20
2019-04-16T18:11:27.782Z,76.20
2019-04-16T18:16:36.064Z,76.70
2019-04-16T18:21:43.279Z,77.10
2019-04-16T18:26:52.207Z,77.40
2019-04-16T18:32:00.613Z,77.50
2019-04-16T18:37:08.952Z,77.50
2019-04-16T18:42:17.366Z,78.20
2019-04-16T18:47:25.636Z,78.70
2019-04-16T18:52:32.718Z,78.80
2019-04-16T18:57:40.201Z,78.90
2019-04-16T19:02:46.985Z,78.90
2019-04-16T19:07:55.886Z,79.10
2019-04-16T19:13:09.743Z,79.80
2019-04-16T19:18:19.499Z,80.40
2019-04-16T19:23:21.554Z,81.40
2019-04-16T19:28:28.770Z,80.80
2019-04-16T19:33:38.258Z,80.60
2019-04-16T19:38:44.130Z,81.00
2019-04-16T19:43:51.434Z,81.30
2019-04-16T19:49:00.457Z,81.50
2019-04-16T19:54:06.995Z,81.30
2019-04-16T19:59:13.760Z,81.60
2019-04-16T20:04:20.908Z,82.00
2019-04-16T20:09:28.146Z,81.80
2019-04-16T20:14:36.260Z,82.00
2019-04-16T20:19:44.920Z,82.30
2019-04-16T20:24:52.028Z,82.20
2019-04-16T20:30:00.275Z,82.20
2019-04-16T20:35:07.878Z,82.60
2019-04-16T20:40:17.732Z,82.90
2019-04-16T20:45:24.008Z,82.90
2019-04-16T20:50:31.941Z,83.40
2019-04-16T20:55:39.054Z,83.50
2019-04-16T21:00:47.925Z,83.30
2019-04-16T21:05:59.152Z,82.90
2019-04-16T21:11:07.386Z,82.80
2019-04-16T21:16:12.891Z,83.50
2019-04-16T21:21:23.355Z,83.60
2019-04-16T21:26:30.084Z,84.10
2019-04-16T21:31:41.466Z,84.70
2019-04-16T21:36:48.493Z,84.10
2019-04-16T21:42:00.848Z,84.10
2019-04-16T21:47:05.546Z,84.90
2019-04-16T21:52:14.626Z,84.80
2019-04-16T21:57:22.751Z,85.00
2019-04-16T22:02:34.440Z,84.40
2019-04-16T22:07:41.605Z,84.60
2019-04-16T22:12:49.103Z,85.10
2019-04-16T22:17:56.244Z,85.20
2019-04-16T22:23:03.758Z,85.30
2019-04-16T22:28:12.925Z,85.30
2019-04-16T22:33:22.562Z,85.40
2019-04-16T22:38:31.567Z,85.00
2019-04-16T22:43:42.606Z,85.20
2019-04-16T22:48:51.117Z,85.50
2019-04-16T22:53:59.145Z,85.90
2019-04-16T22:59:12.895Z,85.70
2019-04-16T23:04:41.884Z,86.30
2019-04-16T23:09:50.172Z,86.30
2019-04-16T23:14:58.148Z,86.10
2019-04-16T23:20:06.732Z,86.70
2019-04-16T23:25:14.897Z,87.10
2019-04-16T23:30:22.461Z,86.90
2019-04-16T23:35:30.481Z,87.50
2019-04-16T23:40:40.656Z,87.60
2019-04-16T23:45:48.011Z,87.50
2019-04-16T23:50:57.120Z,87.80
2019-04-16T23:56:04.671Z,87.50
